sensor_id;sensor_type;location;lat;lon;timestamp;P1;durP1;ratioP1;P2;durP2;ratioP2
35372;SDS011;21476;51.652;7.852;2022-10-19T00:00:21;10.35;;;4.25;;
35372;SDS011;21476;51.652;7.852;2022-10-19T00:02:47;14.32;;;5.82;;
35372;SDS011;21476;51.652;7.852;2022-10-19T00:05:12;10.45;;;4.50;;
35372;SDS011;21476;51.652;7.852;2022-10-19T00:07:38;11.32;;;4.90;;
35372;SDS011;21476;51.652;7.852;2022-10-19T00:10:03;8.52;;;5.15;;
35372;SDS011;21476;51.652;7.852;2022-10-19T00:12:29;7.97;;;4.35;;
35372;SDS011;21476;51.652;7.852;2022-10-19T00:14:55;7.32;;;4.13;;
35372;SDS011;21476;51.652;7.852;2022-10-19T00:17:21;10.43;;;4.40;;
35372;SDS011;21476;51.652;7.852;2022-10-19T00:19:47;8.85;;;3.50;;
35372;SDS011;21476;51.652;7.852;2022-10-19T00:22:12;10.35;;;5.35;;
35372;SDS011;21476;51.652;7.852;2022-10-19T00:24:38;6.75;;;3.38;;
35372;SDS011;21476;51.652;7.852;2022-10-19T00:27:04;7.60;;;3.95;;
35372;SDS011;21476;51.652;7.852;2022-10-19T00:29:30;7.38;;;3.80;;
35372;SDS011;21476;51.652;7.852;2022-10-19T00:31:56;10.23;;;4.18;;
35372;SDS011;21476;51.652;7.852;2022-10-19T00:34:22;11.77;;;4.28;;
35372;SDS011;21476;51.652;7.852;2022-10-19T00:36:48;10.40;;;4.03;;
35372;SDS011;21476;51.652;7.852;2022-10-19T00:39:14;12.20;;;3.97;;
35372;SDS011;21476;51.652;7.852;2022-10-19T00:41:41;12.10;;;4.50;;
35372;SDS011;21476;51.652;7.852;2022-10-19T00:46:43;11.40;;;4.25;;
35372;SDS011;21476;51.652;7.852;2022-10-19T00:51:43;4.07;;;2.55;;
35372;SDS011;21476;51.652;7.852;2022-10-19T00:54:11;5.25;;;2.88;;
35372;SDS011;21476;51.652;7.852;2022-10-19T00:56:38;7.78;;;2.92;;
35372;SDS011;21476;51.652;7.852;2022-10-19T00:59:05;7.13;;;3.42;;
35372;SDS011;21476;51.652;7.852;2022-10-19T01:01:33;7.13;;;4.13;;
35372;SDS011;21476;51.652;7.852;2022-10-19T01:03:59;10.73;;;3.85;;
35372;SDS011;21476;51.652;7.852;2022-10-19T01:06:26;8.88;;;3.67;;
35372;SDS011;21476;51.652;7.852;2022-10-19T01:08:52;8.15;;;3.55;;
35372;SDS011;21476;51.652;7.852;2022-10-19T01:25:22;7.15;;;3.83;;
35372;SDS011;21476;51.652;7.852;2022-10-19T01:30:56;15.07;;;4.90;;
35372;SDS011;21476;51.652;7.852;2022-10-19T01:33:41;13.07;;;5.93;;
35372;SDS011;21476;51.652;7.852;2022-10-19T01:41:50;10.18;;;4.53;;
35372;SDS011;21476;51.652;7.852;2022-10-19T01:44:41;7.68;;;4.45;;
35372;SDS011;21476;51.652;7.852;2022-10-19T01:47:16;8.57;;;5.18;;
35372;SDS011;21476;51.652;7.852;2022-10-19T01:49:48;10.52;;;4.78;;
35372;SDS011;21476;51.652;7.852;2022-10-19T01:52:19;12.13;;;5.53;;
35372;SDS011;21476;51.652;7.852;2022-10-19T01:54:48;14.40;;;5.25;;
35372;SDS011;21476;51.652;7.852;2022-10-19T01:57:21;16.08;;;5.78;;
35372;SDS011;21476;51.652;7.852;2022-10-19T01:59:50;15.13;;;5.93;;
35372;SDS011;21476;51.652;7.852;2022-10-19T02:02:17;15.55;;;5.82;;
35372;SDS011;21476;51.652;7.852;2022-10-19T02:04:45;12.55;;;5.63;;
35372;SDS011;21476;51.652;7.852;2022-10-19T02:07:13;10.68;;;5.13;;
35372;SDS011;21476;51.652;7.852;2022-10-19T02:09:40;20.67;;;5.70;;
35372;SDS011;21476;51.652;7.852;2022-10-19T02:12:08;9.35;;;4.40;;
35372;SDS011;21476;51.652;7.852;2022-10-19T02:14:41;13.18;;;5.15;;
35372;SDS011;21476;51.652;7.852;2022-10-19T02:17:14;8.13;;;4.65;;
35372;SDS011;21476;51.652;7.852;2022-10-19T02:19:42;8.68;;;4.38;;
35372;SDS011;21476;51.652;7.852;2022-10-19T02:22:08;10.90;;;4.35;;
35372;SDS011;21476;51.652;7.852;2022-10-19T02:24:34;6.95;;;3.60;;
35372;SDS011;21476;51.652;7.852;2022-10-19T02:27:00;7.75;;;3.60;;
35372;SDS011;21476;51.652;7.852;2022-10-19T02:29:29;7.43;;;3.50;;
35372;SDS011;21476;51.652;7.852;2022-10-19T02:31:56;9.52;;;3.72;;
35372;SDS011;21476;51.652;7.852;2022-10-19T02:34:22;8.82;;;3.38;;
35372;SDS011;21476;51.652;7.852;2022-10-19T02:36:48;7.55;;;3.63;;
35372;SDS011;21476;51.652;7.852;2022-10-19T02:39:14;4.85;;;3.00;;
35372;SDS011;21476;51.652;7.852;2022-10-19T02:49:52;9.68;;;3.30;;
35372;SDS011;21476;51.652;7.852;2022-10-19T02:52:18;5.65;;;2.83;;
35372;SDS011;21476;51.652;7.852;2022-10-19T02:54:43;17.02;;;4.35;;
35372;SDS011;21476;51.652;7.852;2022-10-19T02:57:27;8.88;;;3.75;;
35372;SDS011;21476;51.652;7.852;2022-10-19T02:59:53;11.80;;;4.38;;
35372;SDS011;21476;51.652;7.852;2022-10-19T03:02:19;6.47;;;3.28;;
35372;SDS011;21476;51.652;7.852;2022-10-19T03:04:45;8.93;;;3.58;;
35372;SDS011;21476;51.652;7.852;2022-10-19T03:07:12;7.88;;;3.72;;
35372;SDS011;21476;51.652;7.852;2022-10-19T03:09:40;11.88;;;3.92;;
35372;SDS011;21476;51.652;7.852;2022-10-19T03:12:06;8.70;;;3.90;;
35372;SDS011;21476;51.652;7.852;2022-10-19T03:14:31;8.43;;;4.15;;
35372;SDS011;21476;51.652;7.852;2022-10-19T03:16:57;9.27;;;4.20;;
35372;SDS011;21476;51.652;7.852;2022-10-19T03:19:23;9.80;;;4.25;;
35372;SDS011;21476;51.652;7.852;2022-10-19T03:21:48;9.55;;;3.40;;
35372;SDS011;21476;51.652;7.852;2022-10-19T03:24:15;8.63;;;4.18;;
35372;SDS011;21476;51.652;7.852;2022-10-19T03:26:40;8.95;;;4.15;;
35372;SDS011;21476;51.652;7.852;2022-10-19T03:29:06;9.55;;;4.45;;
35372;SDS011;21476;51.652;7.852;2022-10-19T03:31:32;8.20;;;3.83;;
35372;SDS011;21476;51.652;7.852;2022-10-19T03:33:57;11.73;;;4.00;;
35372;SDS011;21476;51.652;7.852;2022-10-19T03:36:24;7.82;;;3.47;;
35372;SDS011;21476;51.652;7.852;2022-10-19T03:38:53;10.80;;;4.00;;
35372;SDS011;21476;51.652;7.852;2022-10-19T03:41:24;9.95;;;4.03;;
35372;SDS011;21476;51.652;7.852;2022-10-19T03:43:52;6.47;;;3.47;;
35372;SDS011;21476;51.652;7.852;2022-10-19T03:46:18;10.32;;;4.32;;
35372;SDS011;21476;51.652;7.852;2022-10-19T03:48:44;11.82;;;4.75;;
35372;SDS011;21476;51.652;7.852;2022-10-19T03:51:11;7.13;;;4.03;;
35372;SDS011;21476;51.652;7.852;2022-10-19T03:53:38;7.85;;;3.72;;
35372;SDS011;21476;51.652;7.852;2022-10-19T03:56:06;11.70;;;3.50;;
35372;SDS011;21476;51.652;7.852;2022-10-19T03:58:35;12.82;;;3.63;;
35372;SDS011;21476;51.652;7.852;2022-10-19T04:01:04;6.95;;;3.55;;
35372;SDS011;21476;51.652;7.852;2022-10-19T04:03:31;8.85;;;3.63;;
35372;SDS011;21476;51.652;7.852;2022-10-19T04:06:08;9.98;;;4.72;;
35372;SDS011;21476;51.652;7.852;2022-10-19T04:08:36;9.43;;;4.20;;
35372;SDS011;21476;51.652;7.852;2022-10-19T04:11:07;8.32;;;3.50;;
35372;SDS011;21476;51.652;7.852;2022-10-19T04:13:36;6.00;;;3.45;;
35372;SDS011;21476;51.652;7.852;2022-10-19T04:16:03;5.60;;;3.30;;
35372;SDS011;21476;51.652;7.852;2022-10-19T04:18:28;8.82;;;3.13;;
35372;SDS011;21476;51.652;7.852;2022-10-19T04:20:55;12.13;;;3.92;;
35372;SDS011;21476;51.652;7.852;2022-10-19T04:23:28;9.70;;;2.80;;
35372;SDS011;21476;51.652;7.852;2022-10-19T04:26:05;5.80;;;3.08;;
35372;SDS011;21476;51.652;7.852;2022-10-19T04:28:32;5.95;;;2.70;;
35372;SDS011;21476;51.652;7.852;2022-10-19T04:31:02;8.45;;;3.00;;
35372;SDS011;21476;51.652;7.852;2022-10-19T04:33:29;7.68;;;3.17;;
35372;SDS011;21476;51.652;7.852;2022-10-19T04:36:03;4.82;;;2.90;;
35372;SDS011;21476;51.652;7.852;2022-10-19T04:38:31;7.05;;;3.05;;
35372;SDS011;21476;51.652;7.852;2022-10-19T04:41:04;6.72;;;3.35;;
35372;SDS011;21476;51.652;7.852;2022-10-19T04:43:34;8.82;;;3.75;;
35372;SDS011;21476;51.652;7.852;2022-10-19T04:46:04;7.78;;;2.40;;
35372;SDS011;21476;51.652;7.852;2022-10-19T04:48:32;7.35;;;3.72;;
35372;SDS011;21476;51.652;7.852;2022-10-19T04:50:59;8.23;;;2.95;;
35372;SDS011;21476;51.652;7.852;2022-10-19T04:53:25;9.90;;;4.72;;
35372;SDS011;21476;51.652;7.852;2022-10-19T04:55:51;4.78;;;3.05;;
35372;SDS011;21476;51.652;7.852;2022-10-19T04:58:17;6.47;;;3.88;;
35372;SDS011;21476;51.652;7.852;2022-10-19T05:00:42;7.47;;;3.03;;
35372;SDS011;21476;51.652;7.852;2022-10-19T05:03:08;5.05;;;3.20;;
35372;SDS011;21476;51.652;7.852;2022-10-19T05:05:34;6.47;;;3.40;;
35372;SDS011;21476;51.652;7.852;2022-10-19T05:07:59;8.90;;;3.17;;
35372;SDS011;21476;51.652;7.852;2022-10-19T05:10:25;12.00;;;3.85;;
35372;SDS011;21476;51.652;7.852;2022-10-19T05:12:51;7.72;;;4.10;;
35372;SDS011;21476;51.652;7.852;2022-10-19T05:15:16;9.43;;;3.83;;
35372;SDS011;21476;51.652;7.852;2022-10-19T05:17:42;12.30;;;4.13;;
35372;SDS011;21476;51.652;7.852;2022-10-19T05:20:07;9.25;;;4.07;;
35372;SDS011;21476;51.652;7.852;2022-10-19T05:22:35;7.40;;;3.95;;
35372;SDS011;21476;51.652;7.852;2022-10-19T05:25:05;10.32;;;4.18;;
35372;SDS011;21476;51.652;7.852;2022-10-19T05:27:31;9.73;;;3.65;;
35372;SDS011;21476;51.652;7.852;2022-10-19T05:29:57;8.55;;;4.00;;
35372;SDS011;21476;51.652;7.852;2022-10-19T05:32:23;8.20;;;3.50;;
35372;SDS011;21476;51.652;7.852;2022-10-19T05:34:48;5.43;;;3.38;;
35372;SDS011;21476;51.652;7.852;2022-10-19T05:37:17;5.60;;;3.38;;
35372;SDS011;21476;51.652;7.852;2022-10-19T05:39:43;4.78;;;2.63;;
35372;SDS011;21476;51.652;7.852;2022-10-19T05:42:08;6.25;;;3.03;;
35372;SDS011;21476;51.652;7.852;2022-10-19T05:44:34;5.85;;;3.10;;
35372;SDS011;21476;51.652;7.852;2022-10-19T05:47:01;6.70;;;3.47;;
35372;SDS011;21476;51.652;7.852;2022-10-19T05:49:26;5.43;;;3.08;;
35372;SDS011;21476;51.652;7.852;2022-10-19T05:51:52;7.72;;;3.17;;
35372;SDS011;21476;51.652;7.852;2022-10-19T05:54:18;4.68;;;2.97;;
35372;SDS011;21476;51.652;7.852;2022-10-19T05:56:44;4.97;;;3.55;;
35372;SDS011;21476;51.652;7.852;2022-10-19T05:59:14;7.65;;;3.95;;
35372;SDS011;21476;51.652;7.852;2022-10-19T06:01:44;7.47;;;3.35;;
35372;SDS011;21476;51.652;7.852;2022-10-19T06:04:11;7.05;;;3.63;;
35372;SDS011;21476;51.652;7.852;2022-10-19T06:06:39;5.28;;;3.92;;
35372;SDS011;21476;51.652;7.852;2022-10-19T06:09:06;7.65;;;4.05;;
35372;SDS011;21476;51.652;7.852;2022-10-19T06:11:33;12.02;;;4.47;;
35372;SDS011;21476;51.652;7.852;2022-10-19T06:14:02;10.88;;;4.90;;
35372;SDS011;21476;51.652;7.852;2022-10-19T06:16:30;10.90;;;4.47;;
35372;SDS011;21476;51.652;7.852;2022-10-19T06:18:56;6.63;;;3.92;;
35372;SDS011;21476;51.652;7.852;2022-10-19T06:21:23;7.78;;;4.35;;
35372;SDS011;21476;51.652;7.852;2022-10-19T06:23:51;8.65;;;4.40;;
35372;SDS011;21476;51.652;7.852;2022-10-19T06:26:18;10.85;;;4.82;;
35372;SDS011;21476;51.652;7.852;2022-10-19T06:28:45;7.03;;;4.80;;
35372;SDS011;21476;51.652;7.852;2022-10-19T06:31:11;13.27;;;5.25;;
35372;SDS011;21476;51.652;7.852;2022-10-19T06:33:41;8.02;;;5.28;;
35372;SDS011;21476;51.652;7.852;2022-10-19T06:38:39;7.97;;;5.05;;
35372;SDS011;21476;51.652;7.852;2022-10-19T06:41:06;8.43;;;4.88;;
35372;SDS011;21476;51.652;7.852;2022-10-19T06:43:31;7.65;;;5.35;;
35372;SDS011;21476;51.652;7.852;2022-10-19T06:45:57;6.65;;;4.28;;
35372;SDS011;21476;51.652;7.852;2022-10-19T06:48:23;8.85;;;4.00;;
35372;SDS011;21476;51.652;7.852;2022-10-19T06:50:58;6.55;;;4.38;;
35372;SDS011;21476;51.652;7.852;2022-10-19T06:53:25;7.70;;;4.57;;
35372;SDS011;21476;51.652;7.852;2022-10-19T06:55:55;6.60;;;3.92;;
35372;SDS011;21476;51.652;7.852;2022-10-19T06:58:22;8.82;;;3.85;;
35372;SDS011;21476;51.652;7.852;2022-10-19T07:00:56;7.07;;;4.00;;
35372;SDS011;21476;51.652;7.852;2022-10-19T07:03:23;6.78;;;4.22;;
35372;SDS011;21476;51.652;7.852;2022-10-19T07:06:08;8.60;;;3.67;;
35372;SDS011;21476;51.652;7.852;2022-10-19T07:08:42;6.53;;;3.70;;
35372;SDS011;21476;51.652;7.852;2022-10-19T07:11:09;5.93;;;3.72;;
35372;SDS011;21476;51.652;7.852;2022-10-19T07:13:36;9.10;;;4.15;;
35372;SDS011;21476;51.652;7.852;2022-10-19T07:16:03;8.77;;;3.53;;
35372;SDS011;21476;51.652;7.852;2022-10-19T07:18:32;6.82;;;4.15;;
35372;SDS011;21476;51.652;7.852;2022-10-19T07:21:00;7.60;;;3.97;;
35372;SDS011;21476;51.652;7.852;2022-10-19T07:23:31;8.82;;;3.45;;
35372;SDS011;21476;51.652;7.852;2022-10-19T07:25:57;4.80;;;3.00;;
35372;SDS011;21476;51.652;7.852;2022-10-19T07:28:28;4.85;;;2.63;;
35372;SDS011;21476;51.652;7.852;2022-10-19T07:30:54;5.30;;;2.85;;
35372;SDS011;21476;51.652;7.852;2022-10-19T07:33:20;5.95;;;3.90;;
35372;SDS011;21476;51.652;7.852;2022-10-19T07:35:46;8.27;;;4.32;;
35372;SDS011;21476;51.652;7.852;2022-10-19T07:38:12;9.00;;;3.90;;
35372;SDS011;21476;51.652;7.852;2022-10-19T07:40:40;11.07;;;4.20;;
35372;SDS011;21476;51.652;7.852;2022-10-19T07:43:06;9.65;;;3.83;;
35372;SDS011;21476;51.652;7.852;2022-10-19T07:45:32;7.07;;;4.32;;
35372;SDS011;21476;51.652;7.852;2022-10-19T07:47:58;8.18;;;4.85;;
35372;SDS011;21476;51.652;7.852;2022-10-19T07:50:24;11.25;;;5.00;;
35372;SDS011;21476;51.652;7.852;2022-10-19T07:52:51;11.75;;;5.68;;
35372;SDS011;21476;51.652;7.852;2022-10-19T07:55:17;9.68;;;5.28;;
35372;SDS011;21476;51.652;7.852;2022-10-19T07:57:45;9.93;;;5.90;;
35372;SDS011;21476;51.652;7.852;2022-10-19T08:00:12;16.40;;;6.90;;
35372;SDS011;21476;51.652;7.852;2022-10-19T08:02:39;14.32;;;7.20;;
35372;SDS011;21476;51.652;7.852;2022-10-19T08:05:05;13.93;;;5.93;;
35372;SDS011;21476;51.652;7.852;2022-10-19T08:07:32;12.45;;;6.50;;
35372;SDS011;21476;51.652;7.852;2022-10-19T08:09:58;11.85;;;5.60;;
35372;SDS011;21476;51.652;7.852;2022-10-19T08:12:23;11.20;;;5.20;;
35372;SDS011;21476;51.652;7.852;2022-10-19T08:14:49;11.82;;;5.57;;
35372;SDS011;21476;51.652;7.852;2022-10-19T08:17:17;12.15;;;5.78;;
35372;SDS011;21476;51.652;7.852;2022-10-19T08:19:44;7.35;;;5.13;;
35372;SDS011;21476;51.652;7.852;2022-10-19T08:22:10;9.75;;;5.40;;
35372;SDS011;21476;51.652;7.852;2022-10-19T08:24:36;12.30;;;5.78;;
35372;SDS011;21476;51.652;7.852;2022-10-19T08:27:02;8.63;;;5.63;;
35372;SDS011;21476;51.652;7.852;2022-10-19T08:29:28;14.73;;;6.65;;
35372;SDS011;21476;51.652;7.852;2022-10-19T08:31:53;9.70;;;6.07;;
35372;SDS011;21476;51.652;7.852;2022-10-19T08:34:19;10.30;;;5.72;;
35372;SDS011;21476;51.652;7.852;2022-10-19T08:36:45;12.38;;;5.97;;
35372;SDS011;21476;51.652;7.852;2022-10-19T08:39:13;11.30;;;6.35;;
35372;SDS011;21476;51.652;7.852;2022-10-19T08:41:51;17.23;;;6.45;;
35372;SDS011;21476;51.652;7.852;2022-10-19T08:49:43;11.73;;;6.13;;
35372;SDS011;21476;51.652;7.852;2022-10-19T08:52:29;7.88;;;4.80;;
35372;SDS011;21476;51.652;7.852;2022-10-19T08:54:58;9.77;;;4.60;;
35372;SDS011;21476;51.652;7.852;2022-10-19T09:00:41;12.27;;;5.18;;
35372;SDS011;21476;51.652;7.852;2022-10-19T09:05:47;11.68;;;5.40;;
35372;SDS011;21476;51.652;7.852;2022-10-19T09:08:46;12.13;;;5.05;;
35372;SDS011;21476;51.652;7.852;2022-10-19T09:11:13;12.23;;;4.97;;
35372;SDS011;21476;51.652;7.852;2022-10-19T09:13:44;11.73;;;4.90;;
35372;SDS011;21476;51.652;7.852;2022-10-19T09:16:15;11.55;;;5.43;;
35372;SDS011;21476;51.652;7.852;2022-10-19T09:18:43;8.35;;;5.03;;
35372;SDS011;21476;51.652;7.852;2022-10-19T09:21:20;10.73;;;4.80;;
35372;SDS011;21476;51.652;7.852;2022-10-19T09:26:23;9.48;;;4.28;;
35372;SDS011;21476;51.652;7.852;2022-10-19T09:28:53;12.52;;;4.28;;
35372;SDS011;21476;51.652;7.852;2022-10-19T09:31:32;8.30;;;3.00;;
35372;SDS011;21476;51.652;7.852;2022-10-19T09:34:24;9.88;;;4.10;;
35372;SDS011;21476;51.652;7.852;2022-10-19T09:36:54;8.52;;;3.33;;
35372;SDS011;21476;51.652;7.852;2022-10-19T09:39:21;8.02;;;2.80;;
35372;SDS011;21476;51.652;7.852;2022-10-19T09:41:50;10.20;;;3.78;;
35372;SDS011;21476;51.652;7.852;2022-10-19T09:44:35;6.78;;;3.40;;
35372;SDS011;21476;51.652;7.852;2022-10-19T09:52:48;5.82;;;2.97;;
35372;SDS011;21476;51.652;7.852;2022-10-19T09:57:44;8.70;;;3.28;;
35372;SDS011;21476;51.652;7.852;2022-10-19T10:00:19;9.52;;;3.42;;
35372;SDS011;21476;51.652;7.852;2022-10-19T10:02:53;8.73;;;2.83;;
35372;SDS011;21476;51.652;7.852;2022-10-19T10:07:54;7.90;;;2.50;;
35372;SDS011;21476;51.652;7.852;2022-10-19T10:10:22;6.85;;;2.53;;
35372;SDS011;21476;51.652;7.852;2022-10-19T10:12:50;4.80;;;1.95;;
35372;SDS011;21476;51.652;7.852;2022-10-19T10:15:18;8.10;;;3.17;;
35372;SDS011;21476;51.652;7.852;2022-10-19T10:17:48;7.03;;;2.45;;
35372;SDS011;21476;51.652;7.852;2022-10-19T10:22:50;5.18;;;2.45;;
35372;SDS011;21476;51.652;7.852;2022-10-19T10:25:28;7.75;;;2.58;;
35372;SDS011;21476;51.652;7.852;2022-10-19T10:28:00;7.13;;;2.42;;
35372;SDS011;21476;51.652;7.852;2022-10-19T10:30:40;5.93;;;1.70;;
35372;SDS011;21476;51.652;7.852;2022-10-19T10:33:13;10.18;;;2.85;;
35372;SDS011;21476;51.652;7.852;2022-10-19T10:35:45;4.65;;;1.85;;
35372;SDS011;21476;51.652;7.852;2022-10-19T10:38:17;6.13;;;1.48;;
35372;SDS011;21476;51.652;7.852;2022-10-19T10:41:13;6.45;;;1.92;;
35372;SDS011;21476;51.652;7.852;2022-10-19T10:43:48;8.70;;;2.72;;
35372;SDS011;21476;51.652;7.852;2022-10-19T10:46:22;5.68;;;1.20;;
35372;SDS011;21476;51.652;7.852;2022-10-19T10:48:54;18.55;;;2.03;;
35372;SDS011;21476;51.652;7.852;2022-10-19T10:53:51;7.30;;;2.22;;
35372;SDS011;21476;51.652;7.852;2022-10-19T10:56:38;6.55;;;1.90;;
35372;SDS011;21476;51.652;7.852;2022-10-19T10:59:14;4.40;;;1.88;;
35372;SDS011;21476;51.652;7.852;2022-10-19T11:02:01;6.28;;;1.80;;
35372;SDS011;21476;51.652;7.852;2022-10-19T11:04:40;3.97;;;1.42;;
35372;SDS011;21476;51.652;7.852;2022-10-19T11:07:17;7.20;;;2.55;;
35372;SDS011;21476;51.652;7.852;2022-10-19T11:09:58;7.25;;;2.00;;
35372;SDS011;21476;51.652;7.852;2022-10-19T11:12:37;7.03;;;2.33;;
35372;SDS011;21476;51.652;7.852;2022-10-19T11:18:10;4.53;;;1.70;;
35372;SDS011;21476;51.652;7.852;2022-10-19T11:20:48;6.55;;;2.17;;
35372;SDS011;21476;51.652;7.852;2022-10-19T11:23:25;4.35;;;1.70;;
35372;SDS011;21476;51.652;7.852;2022-10-19T11:28:34;4.97;;;2.08;;
35372;SDS011;21476;51.652;7.852;2022-10-19T11:31:15;10.68;;;2.95;;
35372;SDS011;21476;51.652;7.852;2022-10-19T11:50:34;18.42;;;3.60;;
35372;SDS011;21476;51.652;7.852;2022-10-19T11:53:11;3.83;;;1.40;;
35372;SDS011;21476;51.652;7.852;2022-10-19T12:04:35;8.20;;;1.67;;
35372;SDS011;21476;51.652;7.852;2022-10-19T12:12:31;2.67;;;1.10;;
35372;SDS011;21476;51.652;7.852;2022-10-19T12:17:36;13.55;;;2.08;;
35372;SDS011;21476;51.652;7.852;2022-10-19T12:20:07;9.10;;;1.80;;
35372;SDS011;21476;51.652;7.852;2022-10-19T12:22:45;10.90;;;2.08;;
35372;SDS011;21476;51.652;7.852;2022-10-19T12:25:13;10.80;;;1.52;;
35372;SDS011;21476;51.652;7.852;2022-10-19T12:27:40;6.57;;;1.20;;
35372;SDS011;21476;51.652;7.852;2022-10-19T12:30:27;8.98;;;2.40;;
35372;SDS011;21476;51.652;7.852;2022-10-19T12:39:10;3.17;;;1.23;;
35372;SDS011;21476;51.652;7.852;2022-10-19T12:41:46;5.07;;;1.70;;
35372;SDS011;21476;51.652;7.852;2022-10-19T12:47:14;4.20;;;1.42;;
35372;SDS011;21476;51.652;7.852;2022-10-19T12:49:49;4.30;;;1.30;;
35372;SDS011;21476;51.652;7.852;2022-10-19T12:55:23;3.67;;;1.27;;
35372;SDS011;21476;51.652;7.852;2022-10-19T12:58:01;2.88;;;1.30;;
35372;SDS011;21476;51.652;7.852;2022-10-19T13:00:30;3.30;;;1.02;;
35372;SDS011;21476;51.652;7.852;2022-10-19T13:05:29;3.40;;;1.23;;
35372;SDS011;21476;51.652;7.852;2022-10-19T13:07:56;2.67;;;1.10;;
35372;SDS011;21476;51.652;7.852;2022-10-19T13:10:25;3.20;;;0.90;;
35372;SDS011;21476;51.652;7.852;2022-10-19T13:12:52;3.58;;;1.17;;
35372;SDS011;21476;51.652;7.852;2022-10-19T13:17:59;4.60;;;1.08;;
35372;SDS011;21476;51.652;7.852;2022-10-19T13:20:51;8.68;;;1.58;;
35372;SDS011;21476;51.652;7.852;2022-10-19T13:28:56;3.05;;;1.00;;
35372;SDS011;21476;51.652;7.852;2022-10-19T13:31:22;5.65;;;1.10;;
35372;SDS011;21476;51.652;7.852;2022-10-19T13:33:50;3.80;;;1.00;;
35372;SDS011;21476;51.652;7.852;2022-10-19T13:36:17;4.45;;;1.13;;
35372;SDS011;21476;51.652;7.852;2022-10-19T13:38:44;5.10;;;1.10;;
35372;SDS011;21476;51.652;7.852;2022-10-19T13:49:14;2.83;;;1.13;;
35372;SDS011;21476;51.652;7.852;2022-10-19T14:00:16;7.05;;;1.55;;
35372;SDS011;21476;51.652;7.852;2022-10-19T14:06:03;3.75;;;1.15;;
35372;SDS011;21476;51.652;7.852;2022-10-19T14:11:49;2.88;;;0.85;;
35372;SDS011;21476;51.652;7.852;2022-10-19T14:14:18;2.25;;;1.25;;
35372;SDS011;21476;51.652;7.852;2022-10-19T14:16:52;4.97;;;1.13;;
35372;SDS011;21476;51.652;7.852;2022-10-19T14:19:26;8.75;;;1.40;;
35372;SDS011;21476;51.652;7.852;2022-10-19T14:21:55;2.67;;;1.23;;
35372;SDS011;21476;51.652;7.852;2022-10-19T14:26:59;5.22;;;1.55;;
35372;SDS011;21476;51.652;7.852;2022-10-19T14:29:34;5.05;;;1.50;;
35372;SDS011;21476;51.652;7.852;2022-10-19T14:32:08;6.85;;;1.50;;
35372;SDS011;21476;51.652;7.852;2022-10-19T14:34:42;5.65;;;1.35;;
35372;SDS011;21476;51.652;7.852;2022-10-19T14:37:15;7.15;;;1.52;;
35372;SDS011;21476;51.652;7.852;2022-10-19T14:39:55;8.05;;;1.40;;
35372;SDS011;21476;51.652;7.852;2022-10-19T14:42:37;6.50;;;1.60;;
35372;SDS011;21476;51.652;7.852;2022-10-19T14:45:20;4.28;;;1.80;;
35372;SDS011;21476;51.652;7.852;2022-10-19T14:48:00;7.47;;;1.98;;
35372;SDS011;21476;51.652;7.852;2022-10-19T14:50:40;5.10;;;1.70;;
35372;SDS011;21476;51.652;7.852;2022-10-19T14:56:01;7.00;;;1.75;;
35372;SDS011;21476;51.652;7.852;2022-10-19T15:01:47;7.15;;;2.05;;
35372;SDS011;21476;51.652;7.852;2022-10-19T15:04:27;6.22;;;1.75;;
35372;SDS011;21476;51.652;7.852;2022-10-19T15:06:55;4.25;;;1.77;;
35372;SDS011;21476;51.652;7.852;2022-10-19T15:09:29;7.70;;;1.73;;
35372;SDS011;21476;51.652;7.852;2022-10-19T15:12:05;4.88;;;1.55;;
35372;SDS011;21476;51.652;7.852;2022-10-19T15:14:33;5.50;;;1.70;;
35372;SDS011;21476;51.652;7.852;2022-10-19T15:17:01;6.50;;;2.00;;
35372;SDS011;21476;51.652;7.852;2022-10-19T15:19:31;5.43;;;1.73;;
35372;SDS011;21476;51.652;7.852;2022-10-19T15:24:38;8.30;;;1.63;;
35372;SDS011;21476;51.652;7.852;2022-10-19T15:27:09;6.43;;;2.35;;
35372;SDS011;21476;51.652;7.852;2022-10-19T15:29:45;9.43;;;2.92;;
35372;SDS011;21476;51.652;7.852;2022-10-19T15:32:33;9.38;;;2.53;;
35372;SDS011;21476;51.652;7.852;2022-10-19T15:35:07;6.85;;;1.80;;
35372;SDS011;21476;51.652;7.852;2022-10-19T15:37:33;7.20;;;1.63;;
35372;SDS011;21476;51.652;7.852;2022-10-19T15:39:59;6.20;;;2.95;;
35372;SDS011;21476;51.652;7.852;2022-10-19T15:42:41;5.75;;;2.22;;
35372;SDS011;21476;51.652;7.852;2022-10-19T15:50:48;9.02;;;1.98;;
35372;SDS011;21476;51.652;7.852;2022-10-19T15:53:16;7.28;;;1.73;;
35372;SDS011;21476;51.652;7.852;2022-10-19T15:55:43;10.25;;;2.45;;
35372;SDS011;21476;51.652;7.852;2022-10-19T15:58:09;7.72;;;1.80;;
35372;SDS011;21476;51.652;7.852;2022-10-19T16:00:36;5.10;;;2.08;;
35372;SDS011;21476;51.652;7.852;2022-10-19T16:03:03;8.40;;;2.15;;
35372;SDS011;21476;51.652;7.852;2022-10-19T16:05:28;6.72;;;1.60;;
35372;SDS011;21476;51.652;7.852;2022-10-19T16:07:55;8.30;;;2.70;;
35372;SDS011;21476;51.652;7.852;2022-10-19T16:10:21;7.15;;;3.00;;
35372;SDS011;21476;51.652;7.852;2022-10-19T16:12:49;6.97;;;2.10;;
35372;SDS011;21476;51.652;7.852;2022-10-19T16:15:16;5.28;;;2.15;;
35372;SDS011;21476;51.652;7.852;2022-10-19T16:17:50;7.88;;;1.60;;
35372;SDS011;21476;51.652;7.852;2022-10-19T16:20:22;7.25;;;2.42;;
35372;SDS011;21476;51.652;7.852;2022-10-19T16:22:50;5.82;;;1.30;;
35372;SDS011;21476;51.652;7.852;2022-10-19T16:25:15;7.78;;;1.40;;
35372;SDS011;21476;51.652;7.852;2022-10-19T16:27:41;10.65;;;1.75;;
35372;SDS011;21476;51.652;7.852;2022-10-19T16:30:07;6.68;;;2.58;;
35372;SDS011;21476;51.652;7.852;2022-10-19T16:32:33;5.35;;;1.58;;
35372;SDS011;21476;51.652;7.852;2022-10-19T16:34:59;4.70;;;1.60;;
35372;SDS011;21476;51.652;7.852;2022-10-19T16:37:27;5.90;;;1.85;;
35372;SDS011;21476;51.652;7.852;2022-10-19T16:39:53;4.47;;;1.75;;
35372;SDS011;21476;51.652;7.852;2022-10-19T16:42:19;4.63;;;1.65;;
35372;SDS011;21476;51.652;7.852;2022-10-19T16:44:50;5.47;;;1.70;;
35372;SDS011;21476;51.652;7.852;2022-10-19T16:47:16;8.77;;;1.50;;
35372;SDS011;21476;51.652;7.852;2022-10-19T16:49:44;11.05;;;1.92;;
35372;SDS011;21476;51.652;7.852;2022-10-19T16:52:12;9.00;;;1.70;;
35372;SDS011;21476;51.652;7.852;2022-10-19T16:54:44;5.63;;;1.80;;
35372;SDS011;21476;51.652;7.852;2022-10-19T16:57:13;8.15;;;1.60;;
35372;SDS011;21476;51.652;7.852;2022-10-19T16:59:38;5.25;;;1.92;;
35372;SDS011;21476;51.652;7.852;2022-10-19T17:02:04;4.38;;;1.50;;
35372;SDS011;21476;51.652;7.852;2022-10-19T17:04:29;7.78;;;2.40;;
35372;SDS011;21476;51.652;7.852;2022-10-19T17:06:55;7.18;;;1.52;;
35372;SDS011;21476;51.652;7.852;2022-10-19T17:09:21;9.85;;;1.63;;
35372;SDS011;21476;51.652;7.852;2022-10-19T17:11:48;8.98;;;2.03;;
35372;SDS011;21476;51.652;7.852;2022-10-19T17:14:14;6.07;;;2.03;;
35372;SDS011;21476;51.652;7.852;2022-10-19T17:16:40;5.85;;;2.53;;
35372;SDS011;21476;51.652;7.852;2022-10-19T17:19:06;11.38;;;1.90;;
35372;SDS011;21476;51.652;7.852;2022-10-19T17:21:33;4.03;;;1.85;;
35372;SDS011;21476;51.652;7.852;2022-10-19T17:24:02;4.93;;;2.20;;
35372;SDS011;21476;51.652;7.852;2022-10-19T17:28:57;9.68;;;2.10;;
35372;SDS011;21476;51.652;7.852;2022-10-19T17:31:23;6.93;;;2.25;;
35372;SDS011;21476;51.652;7.852;2022-10-19T17:33:49;7.50;;;2.40;;
35372;SDS011;21476;51.652;7.852;2022-10-19T17:36:17;8.90;;;2.83;;
35372;SDS011;21476;51.652;7.852;2022-10-19T17:38:50;9.10;;;2.35;;
35372;SDS011;21476;51.652;7.852;2022-10-19T17:41:20;5.15;;;2.30;;
35372;SDS011;21476;51.652;7.852;2022-10-19T17:43:46;7.15;;;2.30;;
35372;SDS011;21476;51.652;7.852;2022-10-19T17:46:13;7.20;;;2.38;;
35372;SDS011;21476;51.652;7.852;2022-10-19T17:48:41;6.13;;;2.15;;
35372;SDS011;21476;51.652;7.852;2022-10-19T17:51:10;8.57;;;2.70;;